Nelma, Wisconsin
Current Conditions -  °F | °C
As of 1:55 AM on Sunday 26 Oct 2014 (Local Time) from KEGV Reporting Station
Clear Clear  
Wind Chill: 34°   Ceiling: Unl
Heat Index: 37°   Visibility: 10mi
Dew Point: 26°   Wind: 5mph
Humidity: 63%   Direction: 270°W
Pressure: 29.93"   Gusts: NA
Location:  45.9186°N, 88.7601°W
Report Text: KEGV 260655Z AUTO 27004KT 10SM CLR 03/M03 A2993 RMK AO2 T00301035
Loading
Personal Weather Stations






























Interactive Weather Map
Tropical Storm Tracking
New forecast layout! Learn more

10-Day Weather Forecast

Advertisements
Track Severe Weather on mobile